Terminal Aerodrome Forecast
Issued by NWS Shreveport, LA

Home | Current Version | Previous Version | Text Only | Print | Product List | Glossary On
Versions: 1 2 3 4 5 6 7 8 9 10 11 12 13 14 15
000
FTUS44 KSHV 301100 RRA
TAFMLU
TAF
KMLU 301154Z 3012/0112 VRB03KT P6SM OVC080
      TEMPO 3012/3013 5SM BR OVC080
     FM301500 09005KT P6SM SCT050 BKN090
     FM302000 05003KT P6SM BKN045 BKN100
     FM010000 VRB03KT P6SM FEW090
     FM010900 00000KT 5SM BR BKN020 OVC080=

USA.gov is the U.S. government's official web portal to all federal, state and local government web resources and services.